Time;durP1;ratioP1;P1;durP2;ratioP2;P2;SDS_P1;SDS_P2;PMS_P1;PMS_P2;Temp;Humidity;BMP_temperature;BMP_pressure;BME280_temperature;BME280_humidity;BME280_pressure;Samples;Min_cycle;Max_cycle;Signal;HPM_P1;HPM_P2
2022/07/19 00:00:40;;;;;;;7.80;6.33;;;18.10;99.90;;;;;;5070431;28;20443;-67
2022/07/19 00:03:07;;;;;;;10.10;5.90;;;18.10;99.90;;;;;;5072115;28;20461;-67
2022/07/19 00:05:33;;;;;;;7.60;5.50;;;18.00;99.90;;;;;;5066186;28;20953;-68
2022/07/19 00:08:00;;;;;;;6.20;5.60;;;18.00;99.90;;;;;;5071468;28;20483;-66
2022/07/19 00:10:27;;;;;;;5.53;5.03;;;18.00;99.90;;;;;;5070641;28;20826;-69
2022/07/19 00:12:54;;;;;;;6.30;5.40;;;18.00;99.90;;;;;;5071547;28;20450;-68
2022/07/19 00:15:21;;;;;;;6.27;5.67;;;17.90;99.90;;;;;;5069456;28;20474;-67
2022/07/19 00:17:50;;;;;;;8.80;6.10;;;17.80;99.90;;;;;;5071422;28;20439;-68
2022/07/19 00:20:19;;;;;;;5.67;5.17;;;17.80;99.90;;;;;;5070536;28;20458;-69
2022/07/19 00:22:46;;;;;;;6.70;5.77;;;17.90;99.90;;;;;;5071251;28;20459;-67
2022/07/19 00:25:13;;;;;;;7.53;5.30;;;17.90;99.90;;;;;;5070599;28;20463;-67
2022/07/19 00:27:41;;;;;;;5.70;5.20;;;18.00;99.90;;;;;;5071479;28;20486;-67
2022/07/19 00:30:09;;;;;;;6.43;4.97;;;17.90;99.90;;;;;;5070469;28;20967;-68
2022/07/19 00:32:36;;;;;;;5.73;5.10;;;17.90;99.90;;;;;;5071349;28;21230;-68
2022/07/19 00:35:04;;;;;;;6.60;5.60;;;17.90;99.90;;;;;;5070766;28;20583;-67
2022/07/19 00:37:31;;;;;;;6.27;5.23;;;18.00;99.90;;;;;;5071166;28;20970;-67
2022/07/19 00:39:58;;;;;;;8.83;5.47;;;18.00;99.90;;;;;;5069985;28;20447;-69
2022/07/19 00:42:25;;;;;;;8.30;5.60;;;17.90;99.90;;;;;;5071196;28;20458;-67
2022/07/19 00:44:52;;;;;;;6.37;5.77;;;17.80;99.90;;;;;;5070599;28;20471;-69
2022/07/19 00:47:18;;;;;;;6.60;5.93;;;17.70;99.90;;;;;;5070979;28;20471;-68
2022/07/19 00:49:45;;;;;;;6.03;5.10;;;17.60;99.90;;;;;;5070359;28;20447;-67
2022/07/19 00:52:15;;;;;;;6.37;5.37;;;17.50;99.90;;;;;;5070820;28;20453;-67
2022/07/19 00:54:44;;;;;;;5.20;4.50;;;17.50;99.90;;;;;;5070738;28;20986;-67
2022/07/19 00:57:11;;;;;;;6.40;5.40;;;17.50;99.90;;;;;;5070700;28;20975;-69
2022/07/19 00:59:39;;;;;;;6.10;5.60;;;17.60;99.90;;;;;;5070872;28;20451;-65
2022/07/19 01:02:06;;;;;;;6.17;5.43;;;17.60;99.90;;;;;;5070083;28;20466;-67
2022/07/19 01:04:33;;;;;;;6.53;5.93;;;17.60;99.90;;;;;;5070271;28;20471;-67
2022/07/19 01:07:00;;;;;;;5.67;4.97;;;17.60;99.90;;;;;;5070763;28;20505;-69
2022/07/19 01:09:28;;;;;;;5.80;4.93;;;17.50;99.90;;;;;;5070647;28;20439;-69
2022/07/19 01:11:56;;;;;;;6.23;5.40;;;17.50;99.90;;;;;;5069564;28;20827;-68
2022/07/19 01:14:23;;;;;;;6.27;5.27;;;17.40;99.90;;;;;;5070142;28;20473;-69
2022/07/19 01:16:50;;;;;;;6.60;5.17;;;17.30;99.90;;;;;;5070197;28;20815;-67
2022/07/19 01:19:17;;;;;;;6.07;5.17;;;17.30;99.90;;;;;;5070336;28;20474;-68
2022/07/19 01:21:45;;;;;;;5.13;4.73;;;17.30;99.90;;;;;;5069605;28;20477;-68
2022/07/19 01:24:12;;;;;;;5.47;4.97;;;17.20;99.90;;;;;;5070392;28;20471;-68
2022/07/19 01:26:39;;;;;;;6.53;5.40;;;17.20;99.90;;;;;;5070043;28;20824;-67
2022/07/19 01:29:05;;;;;;;7.23;6.07;;;17.20;99.90;;;;;;5070260;28;20469;-69
2022/07/19 01:31:32;;;;;;;6.87;6.17;;;17.20;99.90;;;;;;5068114;28;20451;-68
2022/07/19 01:33:59;;;;;;;6.10;5.50;;;17.10;99.90;;;;;;5068816;28;21003;-67
2022/07/19 01:36:26;;;;;;;6.00;5.40;;;17.10;99.90;;;;;;5063862;28;21265;-68
2022/07/19 01:38:54;;;;;;;5.80;5.30;;;17.00;99.90;;;;;;5076347;28;20438;-68
2022/07/19 01:41:21;;;;;;;5.93;5.10;;;17.00;99.90;;;;;;5069317;28;20451;-67
2022/07/19 01:43:47;;;;;;;6.93;5.20;;;16.90;99.90;;;;;;5069800;28;20443;-68
2022/07/19 01:46:15;;;;;;;5.60;5.10;;;16.90;99.90;;;;;;5069943;28;20443;-68
2022/07/19 01:48:42;;;;;;;7.13;6.10;;;16.90;99.90;;;;;;5069653;28;20482;-67
2022/07/19 01:51:09;;;;;;;5.90;5.10;;;16.90;99.90;;;;;;5069419;28;20834;-66
2022/07/19 01:53:36;;;;;;;5.97;5.23;;;16.80;99.90;;;;;;5069822;28;20455;-66
2022/07/19 01:56:06;;;;;;;6.87;6.17;;;16.80;99.90;;;;;;5069885;28;20449;-68
2022/07/19 01:58:33;;;;;;;6.83;6.13;;;16.80;99.90;;;;;;5069943;28;20905;-68
2022/07/19 02:01:00;;;;;;;8.17;6.23;;;16.70;99.90;;;;;;5069232;28;20445;-68
2022/07/19 02:03:27;;;;;;;6.33;5.53;;;16.70;99.90;;;;;;5070172;28;20449;-67
2022/07/19 02:05:55;;;;;;;6.73;6.03;;;16.70;99.90;;;;;;5067849;28;20493;-67
2022/07/19 02:08:21;;;;;;;10.50;5.90;;;16.60;99.90;;;;;;5066403;28;20486;-68
2022/07/19 02:10:48;;;;;;;6.13;5.60;;;16.60;99.90;;;;;;5059455;28;20470;-67
2022/07/19 02:13:17;;;;;;;6.63;5.93;;;16.50;99.90;;;;;;5064360;28;20448;-67
2022/07/19 02:15:43;;;;;;;6.67;6.07;;;16.40;99.90;;;;;;5058379;28;20468;-68
2022/07/19 02:18:10;;;;;;;7.00;5.80;;;16.40;99.90;;;;;;5063338;28;20814;-68
2022/07/19 02:20:37;;;;;;;6.77;6.10;;;16.30;99.90;;;;;;5069011;28;20443;-69
2022/07/19 02:23:04;;;;;;;6.90;6.20;;;16.40;99.90;;;;;;5072451;28;20446;-67
2022/07/19 02:25:30;;;;;;;8.30;5.87;;;16.40;99.90;;;;;;5073297;28;20470;-67
2022/07/19 02:27:57;;;;;;;5.80;5.30;;;16.40;99.90;;;;;;5073874;28;20489;-69
2022/07/19 02:30:25;;;;;;;6.20;5.60;;;16.40;99.90;;;;;;5073024;28;20478;-68
2022/07/19 02:32:52;;;;;;;7.33;5.50;;;16.30;99.90;;;;;;5073662;28;20454;-68
2022/07/19 02:35:19;;;;;;;6.40;5.80;;;16.40;99.90;;;;;;5073105;28;20467;-69
2022/07/19 02:37:46;;;;;;;6.50;5.90;;;16.30;99.90;;;;;;5073392;28;20480;-68
2022/07/19 02:40:13;;;;;;;7.50;6.80;;;16.30;99.90;;;;;;5072615;28;20447;-67
2022/07/19 02:42:40;;;;;;;7.00;6.20;;;16.20;99.90;;;;;;5073398;28;21182;-68
2022/07/19 02:45:07;;;;;;;7.13;6.37;;;16.20;99.90;;;;;;5073086;28;20473;-67
2022/07/19 02:47:35;;;;;;;7.73;7.03;;;16.20;99.90;;;;;;5073155;28;20475;-68
2022/07/19 02:50:02;;;;;;;7.10;6.40;;;16.20;99.90;;;;;;5072522;28;20454;-69
2022/07/19 02:52:30;;;;;;;8.50;5.90;;;16.10;99.90;;;;;;5073103;28;20454;-67
2022/07/19 02:54:57;;;;;;;7.27;6.20;;;16.10;99.90;;;;;;5072941;28;20474;-68
2022/07/19 02:57:24;;;;;;;7.50;6.00;;;16.00;99.90;;;;;;5072960;28;20439;-68
2022/07/19 02:59:51;;;;;;;7.27;6.57;;;16.00;99.90;;;;;;5072366;28;20451;-68
2022/07/19 03:02:17;;;;;;;6.33;5.70;;;15.90;99.90;;;;;;5073010;28;20451;-68
2022/07/19 03:04:45;;;;;;;6.70;5.90;;;15.90;99.90;;;;;;5072577;28;20494;-68
2022/07/19 03:07:13;;;;;;;7.00;6.30;;;16.00;99.90;;;;;;5074342;28;20447;-68
2022/07/19 03:09:40;;;;;;;8.00;6.77;;;16.00;99.90;;;;;;5072556;28;20447;-68
2022/07/19 03:12:07;;;;;;;7.37;6.00;;;15.90;99.90;;;;;;5072096;28;20451;-70
2022/07/19 03:14:33;;;;;;;7.27;6.37;;;15.80;99.90;;;;;;5072543;28;20481;-68
2022/07/19 03:17:00;;;;;;;7.37;6.17;;;15.80;99.90;;;;;;5072926;28;20454;-68
2022/07/19 03:19:27;;;;;;;9.50;6.90;;;15.80;99.90;;;;;;5072710;28;20545;-67
2022/07/19 03:21:55;;;;;;;6.47;5.87;;;15.80;99.90;;;;;;5071789;28;20450;-68
2022/07/19 03:24:22;;;;;;;7.03;6.23;;;15.70;99.90;;;;;;5072087;28;20458;-67
2022/07/19 03:26:49;;;;;;;7.30;6.60;;;15.70;99.90;;;;;;5072725;28;20500;-68
2022/07/19 03:29:16;;;;;;;8.23;7.50;;;15.60;99.90;;;;;;5072743;28;20482;-69
2022/07/19 03:31:43;;;;;;;7.20;5.60;;;15.70;99.90;;;;;;5071709;28;20458;-67
2022/07/19 03:34:10;;;;;;;9.03;6.00;;;15.70;99.90;;;;;;5072254;28;20470;-67
2022/07/19 03:36:36;;;;;;;6.87;5.93;;;15.70;99.90;;;;;;5071950;28;20459;-67
2022/07/19 03:39:05;;;;;;;8.30;6.10;;;15.60;99.90;;;;;;5072259;28;20439;-68
2022/07/19 03:41:32;;;;;;;7.20;6.33;;;15.60;99.90;;;;;;5071398;28;21037;-67
2022/07/19 03:44:00;;;;;;;8.30;6.50;;;15.60;99.90;;;;;;5072318;28;20486;-67
2022/07/19 03:46:28;;;;;;;7.13;6.03;;;15.60;99.90;;;;;;5071588;28;20948;-68
2022/07/19 03:48:55;;;;;;;7.50;6.20;;;15.60;99.90;;;;;;5071992;28;20518;-69
2022/07/19 03:51:22;;;;;;;7.67;6.87;;;15.70;99.90;;;;;;5071192;28;20478;-69
2022/07/19 03:53:48;;;;;;;6.83;6.23;;;15.60;99.90;;;;;;5072348;28;20451;-67
2022/07/19 03:56:17;;;;;;;7.73;6.57;;;15.50;99.90;;;;;;5071711;28;20439;-68
2022/07/19 03:58:44;;;;;;;7.73;6.43;;;15.60;99.90;;;;;;5072052;28;20501;-67
2022/07/19 04:01:12;;;;;;;8.67;6.60;;;15.50;99.90;;;;;;5070714;28;20992;-69
2022/07/19 04:03:39;;;;;;;7.40;6.60;;;15.60;99.90;;;;;;5072089;28;20443;-68
2022/07/19 04:06:06;;;;;;;7.50;6.80;;;15.50;99.90;;;;;;5071292;28;20834;-69
2022/07/19 04:08:33;;;;;;;7.43;6.73;;;15.50;99.90;;;;;;5071956;28;20482;-68
2022/07/19 04:11:00;;;;;;;8.10;6.50;;;15.60;99.90;;;;;;5070884;28;20443;-68
2022/07/19 04:13:28;;;;;;;10.43;6.50;;;15.60;99.90;;;;;;5071586;28;20461;-65
2022/07/19 04:15:55;;;;;;;7.13;6.40;;;15.60;99.90;;;;;;5071207;28;20470;-68
2022/07/19 04:18:22;;;;;;;6.90;6.20;;;15.60;99.90;;;;;;5071208;28;20443;-68
2022/07/19 04:20:48;;;;;;;7.50;6.80;;;15.70;99.90;;;;;;5070720;28;20952;-65
2022/07/19 04:23:15;;;;;;;12.93;7.23;;;15.80;99.90;;;;;;5071481;28;20447;-69
2022/07/19 04:25:42;;;;;;;7.50;6.80;;;15.80;99.90;;;;;;5071037;28;20466;-69
2022/07/19 04:28:09;;;;;;;9.67;7.43;;;15.80;99.90;;;;;;5071195;28;20474;-69
2022/07/19 04:30:37;;;;;;;7.43;6.63;;;15.90;99.90;;;;;;5070399;28;20454;-68
2022/07/19 04:33:04;;;;;;;7.77;6.97;;;16.00;99.90;;;;;;5071020;28;20447;-68
2022/07/19 04:35:31;;;;;;;6.83;6.23;;;16.00;99.90;;;;;;5070923;28;20467;-69
2022/07/19 04:37:57;;;;;;;10.03;7.20;;;16.20;99.90;;;;;;5071084;28;20474;-68
2022/07/19 04:40:24;;;;;;;7.27;6.57;;;16.30;99.90;;;;;;5070001;28;20443;-68
2022/07/19 04:42:51;;;;;;;7.73;6.87;;;16.20;99.90;;;;;;5070762;28;21008;-70
2022/07/19 04:45:18;;;;;;;9.50;7.27;;;16.20;99.90;;;;;;5069889;28;20467;-67
2022/07/19 04:47:46;;;;;;;6.80;6.20;;;16.30;99.90;;;;;;5070960;28;20439;-66
2022/07/19 04:50:13;;;;;;;7.10;6.37;;;16.30;99.90;;;;;;5069969;28;20815;-65
2022/07/19 04:52:39;;;;;;;6.93;6.23;;;16.40;99.90;;;;;;5071397;28;20446;-69
2022/07/19 04:55:07;;;;;;;6.73;6.03;;;16.50;99.90;;;;;;5070266;28;20521;-65
2022/07/19 04:57:34;;;;;;;10.37;6.63;;;16.50;99.90;;;;;;5071013;28;20493;-65
2022/07/19 05:00:01;;;;;;;6.77;6.17;;;16.50;99.90;;;;;;5067086;28;20451;-67
2022/07/19 05:02:28;;;;;;;6.70;6.00;;;16.50;99.90;;;;;;5060001;28;20443;-68
2022/07/19 05:04:56;;;;;;;7.40;6.70;;;16.60;99.90;;;;;;5070349;28;20469;-68
2022/07/19 05:07:23;;;;;;;6.90;6.20;;;16.70;99.90;;;;;;5070524;28;20508;-67
2022/07/19 05:09:49;;;;;;;7.30;6.60;;;16.80;99.90;;;;;;5065195;28;21007;-67
2022/07/19 05:12:16;;;;;;;12.30;6.63;;;16.90;99.90;;;;;;5069597;28;20552;-68
2022/07/19 05:14:43;;;;;;;7.83;7.10;;;16.90;99.90;;;;;;5058327;28;20835;-67
2022/07/19 05:17:10;;;;;;;7.63;6.67;;;17.00;99.90;;;;;;5050772;28;20448;-67
2022/07/19 05:19:37;;;;;;;7.30;6.60;;;17.10;99.90;;;;;;5050686;28;20440;-66
2022/07/19 05:22:05;;;;;;;8.33;6.90;;;17.20;99.90;;;;;;5049886;28;20447;-67
2022/07/19 05:24:32;;;;;;;11.20;6.43;;;17.30;99.90;;;;;;5050023;28;20482;-67
2022/07/19 05:26:58;;;;;;;9.63;7.00;;;17.40;99.90;;;;;;5050128;28;20810;-68
2022/07/19 05:29:25;;;;;;;6.80;6.20;;;17.50;99.90;;;;;;5050035;28;20472;-67
2022/07/19 05:31:52;;;;;;;7.70;6.70;;;17.60;99.90;;;;;;5049643;28;20459;-67
2022/07/19 05:34:19;;;;;;;7.60;6.37;;;17.60;99.90;;;;;;5049694;28;20475;-68
2022/07/19 05:36:46;;;;;;;7.33;6.63;;;17.70;99.90;;;;;;5050157;28;20825;-67
2022/07/19 05:39:14;;;;;;;11.70;6.73;;;17.80;99.90;;;;;;5049837;28;20446;-67
2022/07/19 05:41:42;;;;;;;9.47;6.60;;;17.90;99.90;;;;;;5049196;28;20460;-68
2022/07/19 05:44:09;;;;;;;9.50;7.80;;;17.90;99.90;;;;;;5049989;28;20556;-67
2022/07/19 05:46:40;;;;;;;7.10;6.40;;;18.00;99.90;;;;;;5049962;28;20444;-69
2022/07/19 05:49:07;;;;;;;7.47;6.77;;;18.10;99.90;;;;;;5049810;28;20488;-69
2022/07/19 05:51:34;;;;;;;8.27;6.37;;;18.20;99.90;;;;;;5050281;28;20451;-68
2022/07/19 05:54:00;;;;;;;7.73;7.00;;;18.30;99.90;;;;;;5065903;28;20993;-68
2022/07/19 05:56:29;;;;;;;9.47;6.70;;;18.40;99.90;;;;;;5063633;28;20447;-69
2022/07/19 05:58:55;;;;;;;7.50;6.83;;;18.50;99.90;;;;;;5069525;28;20439;-68
2022/07/19 06:01:23;;;;;;;7.40;6.13;;;18.60;99.90;;;;;;5068957;28;20443;-67
2022/07/19 06:03:52;;;;;;;6.87;5.93;;;18.80;99.90;;;;;;5069942;28;20882;-69
2022/07/19 06:06:19;;;;;;;6.60;5.97;;;19.00;99.90;;;;;;5069213;28;20508;-68
2022/07/19 06:08:46;;;;;;;7.97;6.07;;;19.00;99.90;;;;;;5069580;28;20479;-70
2022/07/19 06:11:13;;;;;;;6.63;5.60;;;19.10;99.90;;;;;;5068657;28;20447;-68
2022/07/19 06:13:41;;;;;;;7.40;6.70;;;19.20;99.90;;;;;;5069475;28;20450;-69
2022/07/19 06:16:08;;;;;;;6.57;5.93;;;19.30;99.90;;;;;;5069120;28;20450;-68
2022/07/19 06:18:36;;;;;;;6.70;5.63;;;19.50;99.90;;;;;;5069446;28;20435;-68
2022/07/19 06:21:04;;;;;;;8.80;5.87;;;19.50;99.90;;;;;;5068493;28;20481;-67
2022/07/19 06:23:31;;;;;;;7.80;5.93;;;19.70;99.90;;;;;;5069513;28;20535;-70
2022/07/19 06:25:58;;;;;;;6.80;6.00;;;19.90;99.90;;;;;;5069203;28;20464;-68
2022/07/19 06:28:25;;;;;;;8.83;4.60;;;20.00;99.90;;;;;;5068411;28;21003;-67
2022/07/19 06:30:53;;;;;;;9.17;6.10;;;20.10;99.90;;;;;;5063693;28;20829;-68
2022/07/19 06:33:20;;;;;;;7.00;5.13;;;20.20;99.90;;;;;;5066551;28;20980;-67
2022/07/19 06:35:47;;;;;;;6.20;5.40;;;20.40;99.90;;;;;;5069123;28;20489;-69
2022/07/19 06:38:14;;;;;;;5.83;5.27;;;20.50;99.90;;;;;;5069054;28;20458;-68
2022/07/19 06:40:41;;;;;;;7.80;5.60;;;20.60;99.90;;;;;;5068451;28;20457;-68
2022/07/19 06:43:08;;;;;;;6.70;5.60;;;20.80;99.90;;;;;;5068420;28;20461;-68
2022/07/19 06:45:35;;;;;;;6.00;4.80;;;20.90;99.90;;;;;;5064627;28;20466;-67
2022/07/19 06:48:03;;;;;;;7.40;4.97;;;21.00;99.90;;;;;;5065854;28;20534;-68
2022/07/19 06:50:30;;;;;;;5.87;4.70;;;21.10;99.90;;;;;;5058797;28;20479;-65
2022/07/19 06:52:57;;;;;;;7.00;5.50;;;21.20;99.90;;;;;;5078942;28;20824;-69
2022/07/19 06:55:24;;;;;;;6.60;5.20;;;21.30;99.90;;;;;;5066646;28;20463;-67
2022/07/19 06:57:51;;;;;;;7.00;6.30;;;21.50;99.90;;;;;;5067212;28;20858;-67
2022/07/19 07:00:18;;;;;;;8.20;5.80;;;21.60;99.90;;;;;;5066340;28;20439;-67
2022/07/19 07:02:45;;;;;;;6.50;5.30;;;21.80;99.90;;;;;;5067869;28;20963;-66
2022/07/19 07:05:13;;;;;;;5.60;4.97;;;21.90;99.90;;;;;;5068807;28;20478;-68
2022/07/19 07:07:41;;;;;;;8.90;5.40;;;22.00;99.90;;;;;;5067420;28;20479;-66
2022/07/19 07:10:09;;;;;;;5.57;5.07;;;22.10;99.90;;;;;;5068444;28;20487;-68
2022/07/19 07:12:36;;;;;;;8.53;5.53;;;22.20;99.90;;;;;;5063216;28;20440;-68
2022/07/19 07:15:03;;;;;;;7.57;5.40;;;22.50;99.90;;;;;;5052212;28;20474;-67
2022/07/19 07:17:30;;;;;;;7.50;5.40;;;22.70;99.90;;;;;;5052759;28;20440;-68
2022/07/19 07:19:57;;;;;;;7.73;4.90;;;22.80;99.90;;;;;;5051013;28;20452;-68
2022/07/19 07:22:25;;;;;;;6.63;4.47;;;23.10;99.90;;;;;;5052037;28;20950;-68
2022/07/19 07:24:52;;;;;;;6.33;4.50;;;23.20;99.90;;;;;;5052014;28;20479;-68
2022/07/19 07:27:19;;;;;;;4.93;4.00;;;23.30;99.90;;;;;;5052659;28;20459;-67
2022/07/19 07:29:46;;;;;;;5.57;3.87;;;23.50;99.90;;;;;;5051936;28;20475;-67
2022/07/19 07:32:13;;;;;;;6.23;4.20;;;23.60;99.90;;;;;;5052194;28;20451;-67
2022/07/19 07:34:39;;;;;;;6.13;4.10;;;23.70;99.90;;;;;;5052091;28;20468;-67
2022/07/19 07:37:06;;;;;;;6.73;4.40;;;23.80;99.90;;;;;;5052458;28;20455;-69
2022/07/19 07:39:35;;;;;;;4.17;3.47;;;24.00;99.90;;;;;;5052417;28;20946;-67
2022/07/19 07:42:03;;;;;;;4.80;3.43;;;24.20;98.40;;;;;;5051542;28;20446;-69
2022/07/19 07:44:30;;;;;;;5.23;4.20;;;24.30;98.40;;;;;;5051837;28;20464;-69
2022/07/19 07:46:57;;;;;;;5.67;3.57;;;24.40;98.50;;;;;;5051946;28;20451;-68
2022/07/19 07:49:24;;;;;;;5.30;3.30;;;24.50;97.80;;;;;;5051957;28;21023;-68
2022/07/19 07:51:51;;;;;;;5.73;4.13;;;24.70;97.60;;;;;;5051159;28;20452;-68
2022/07/19 07:54:17;;;;;;;5.43;3.87;;;25.00;97.80;;;;;;5052009;28;20467;-67
2022/07/19 07:56:46;;;;;;;5.67;3.50;;;25.20;94.70;;;;;;5052039;28;20452;-69
2022/07/19 07:59:13;;;;;;;3.90;3.40;;;25.40;94.80;;;;;;5051941;28;20963;-69
2022/07/19 08:01:39;;;;;;;3.95;3.00;;;25.50;94.10;;;;;;5050571;28;20436;-66
2022/07/19 08:04:06;;;;;;;5.83;3.50;;;25.70;93.60;;;;;;5052096;28;20236;-68
2022/07/19 08:06:33;;;;;;;5.03;3.47;;;26.00;93.20;;;;;;5051648;28;20459;-69
2022/07/19 08:09:00;;;;;;;5.27;3.30;;;26.20;92.30;;;;;;5051956;28;20479;-67
2022/07/19 08:11:26;;;;;;;6.60;3.87;;;26.40;92.20;;;;;;5050922;28;20823;-68
2022/07/19 08:13:55;;;;;;;4.17;3.47;;;26.60;91.70;;;;;;5051848;28;20467;-69
2022/07/19 08:16:21;;;;;;;8.00;3.37;;;26.80;90.40;;;;;;5051762;28;20451;-69
2022/07/19 08:18:48;;;;;;;5.00;3.30;;;27.00;90.10;;;;;;5051876;28;20452;-68
2022/07/19 08:21:15;;;;;;;5.83;3.37;;;27.00;86.80;;;;;;5050388;28;20448;-68
2022/07/19 08:23:42;;;;;;;3.60;2.80;;;27.30;86.30;;;;;;5051964;28;20487;-68
2022/07/19 08:26:09;;;;;;;6.20;2.83;;;27.40;86.80;;;;;;5051581;28;20892;-67
2022/07/19 08:28:36;;;;;;;6.63;2.93;;;27.50;86.20;;;;;;5051682;28;20455;-68
2022/07/19 08:31:05;;;;;;;3.90;3.10;;;27.60;87.50;;;;;;5051272;28;20479;-67
2022/07/19 08:33:31;;;;;;;3.80;2.77;;;27.70;80.40;;;;;;5051765;28;20467;-68
2022/07/19 08:35:58;;;;;;;5.70;3.07;;;28.00;80.20;;;;;;5051151;28;20479;-68
2022/07/19 08:38:25;;;;;;;4.00;2.70;;;28.30;81.50;;;;;;5051504;28;20881;-67
2022/07/19 08:40:53;;;;;;;4.53;2.80;;;28.40;79.40;;;;;;5050592;28;20456;-68
2022/07/19 08:43:22;;;;;;;5.43;2.70;;;28.70;77.50;;;;;;5051218;28;20517;-68
2022/07/19 08:45:50;;;;;;;4.03;2.53;;;28.80;79.10;;;;;;5050850;28;20472;-68
2022/07/19 08:48:19;;;;;;;4.00;3.37;;;28.90;80.30;;;;;;5051345;28;20452;-71
2022/07/19 08:50:47;;;;;;;4.47;2.30;;;29.10;79.00;;;;;;5050655;28;20578;-68
2022/07/19 08:53:15;;;;;;;3.90;2.20;;;29.30;75.10;;;;;;5051161;28;20448;-69
2022/07/19 08:55:42;;;;;;;3.97;2.80;;;29.40;77.20;;;;;;5050386;28;20478;-68
2022/07/19 08:58:08;;;;;;;5.80;2.30;;;29.50;70.10;;;;;;5051258;28;20432;-67
2022/07/19 09:00:36;;;;;;;2.93;2.57;;;29.60;70.30;;;;;;5050150;28;20984;-69
2022/07/19 09:03:05;;;;;;;6.63;2.87;;;29.80;70.20;;;;;;5050879;28;20203;-68
2022/07/19 09:05:34;;;;;;;3.70;2.10;;;29.90;70.80;;;;;;5050347;28;20460;-69
2022/07/19 09:08:07;;;;;;;3.17;2.30;;;30.10;65.50;;;;;;5050930;28;20444;-70
2022/07/19 09:10:35;;;;;;;3.63;2.20;;;30.20;63.20;;;;;;5050010;28;20843;-66
2022/07/19 09:13:09;;;;;;;4.27;2.80;;;30.30;66.60;;;;;;5050662;28;20448;-67
2022/07/19 09:15:44;;;;;;;5.87;2.43;;;30.40;63.30;;;;;;5050150;28;20498;-69
2022/07/19 09:18:15;;;;;;;3.30;2.43;;;30.50;64.30;;;;;;5050615;28;20447;-69
2022/07/19 09:20:45;;;;;;;7.37;4.23;;;30.60;63.20;;;;;;5049880;28;20963;-69
2022/07/19 09:23:12;;;;;;;5.70;2.73;;;30.70;62.50;;;;;;5050765;28;20467;-69
2022/07/19 09:25:41;;;;;;;3.70;2.43;;;30.80;60.80;;;;;;5049911;28;20984;-69
2022/07/19 09:28:09;;;;;;;4.33;2.60;;;30.90;62.10;;;;;;5050567;28;20443;-69
2022/07/19 09:30:38;;;;;;;9.80;2.60;;;31.10;63.30;;;;;;5049398;28;20831;-70
2022/07/19 09:33:11;;;;;;;9.67;2.90;;;31.20;60.10;;;;;;5063388;28;20521;-68
2022/07/19 09:35:40;;;;;;;4.37;2.73;;;31.20;59.40;;;;;;5062429;28;20467;-70
2022/07/19 09:38:34;;;;;;;6.80;3.30;;;31.30;59.30;;;;;;5057896;28;20451;-69
2022/07/19 09:41:11;;;;;;;6.10;2.87;;;31.40;58.00;;;;;;5055277;28;20440;-68
2022/07/19 09:43:52;;;;;;;3.50;2.53;;;31.60;55.50;;;;;;5054632;28;20446;-69
2022/07/19 09:46:30;;;;;;;5.57;2.67;;;31.80;58.00;;;;;;5055264;28;20458;-66
2022/07/19 09:49:07;;;;;;;5.47;2.80;;;32.00;57.30;;;;;;5058417;28;20554;-68
2022/07/19 09:51:36;;;;;;;5.90;2.43;;;32.10;56.60;;;;;;5051798;28;20447;-66
2022/07/19 09:54:06;;;;;;;4.10;2.93;;;32.20;54.10;;;;;;5039155;28;20625;-69
2022/07/19 09:56:33;;;;;;;4.20;2.87;;;32.40;55.00;;;;;;5044082;28;20462;-69
2022/07/19 09:59:00;;;;;;;4.83;3.20;;;32.70;54.30;;;;;;5052516;28;20456;-67
2022/07/19 10:01:29;;;;;;;3.57;2.97;;;33.20;53.40;;;;;;5057147;28;20444;-67
2022/07/19 10:04:01;;;;;;;7.17;2.50;;;34.00;50.80;;;;;;5057546;28;21206;-69
2022/07/19 10:06:29;;;;;;;4.80;3.40;;;34.80;50.50;;;;;;5061187;28;20447;-68
2022/07/19 10:08:56;;;;;;;3.20;2.47;;;35.40;48.20;;;;;;5060287;28;20572;-68
2022/07/19 10:11:25;;;;;;;7.50;3.20;;;36.30;49.10;;;;;;5060872;28;20566;-70
2022/07/19 10:13:53;;;;;;;5.60;2.80;;;36.80;46.30;;;;;;5060374;28;20460;-70
2022/07/19 10:16:31;;;;;;;3.33;2.90;;;37.10;45.20;;;;;;5061329;28;20447;-66
2022/07/19 10:19:11;;;;;;;8.23;2.70;;;37.60;44.70;;;;;;5059317;28;20458;-68
2022/07/19 10:21:38;;;;;;;8.90;3.23;;;37.90;44.80;;;;;;5066118;28;20482;-68
2022/07/19 10:24:05;;;;;;;5.73;3.43;;;38.10;44.00;;;;;;5062394;28;20475;-68
2022/07/19 10:26:38;;;;;;;3.90;3.20;;;38.20;43.10;;;;;;5067882;28;20455;-69
2022/07/19 10:29:09;;;;;;;5.00;2.73;;;38.40;41.80;;;;;;5064445;28;20850;-69
2022/07/19 10:31:36;;;;;;;3.80;3.07;;;38.50;42.60;;;;;;5054865;28;20478;-68
2022/07/19 10:34:05;;;;;;;5.40;3.50;;;38.90;41.30;;;;;;5059372;28;20502;-69
2022/07/19 10:36:33;;;;;;;6.30;2.80;;;39.00;41.70;;;;;;5058652;28;20452;-70
2022/07/19 10:39:21;;;;;;;3.00;2.70;;;39.40;40.80;;;;;;5060323;28;20451;-68
2022/07/19 10:42:17;;;;;;;4.10;2.90;;;39.80;39.50;;;;;;5053177;28;20452;-68
2022/07/19 10:45:14;;;;;;;7.30;2.63;;;40.00;37.50;;;;;;5062479;28;20463;-68
2022/07/19 10:48:09;;;;;;;7.57;3.40;;;39.90;37.20;;;;;;5062769;28;20452;-68
2022/07/19 10:50:57;;;;;;;3.40;2.70;;;39.40;38.00;;;;;;5061093;28;20474;-68
2022/07/19 10:54:03;;;;;;;5.10;2.80;;;39.60;36.10;;;;;;5070017;28;20944;-68
2022/07/19 10:57:05;;;;;;;7.47;3.57;;;39.70;39.20;;;;;;5073007;28;20529;-68
2022/07/19 10:59:42;;;;;;;3.23;2.53;;;39.60;38.10;;;;;;5048890;28;20450;-70
2022/07/19 11:02:24;;;;;;;4.63;2.83;;;39.30;39.30;;;;;;5075775;28;20443;-69
2022/07/19 11:04:51;;;;;;;4.53;2.87;;;39.40;38.00;;;;;;5066926;28;20837;-68
2022/07/19 11:07:22;;;;;;;4.93;3.00;;;39.50;37.70;;;;;;5069399;28;20860;-68
2022/07/19 11:09:52;;;;;;;4.70;2.80;;;39.50;38.10;;;;;;5067100;28;21077;-67
2022/07/19 11:12:29;;;;;;;11.60;4.53;;;39.40;37.70;;;;;;5062897;28;20448;-68
2022/07/19 11:14:58;;;;;;;4.47;2.80;;;39.50;37.40;;;;;;5058327;28;20476;-69
2022/07/19 11:17:25;;;;;;;5.30;2.90;;;39.40;36.90;;;;;;5065339;28;20459;-69
2022/07/19 11:19:59;;;;;;;6.80;3.00;;;39.10;36.60;;;;;;5067027;28;20832;-70
2022/07/19 11:22:26;;;;;;;23.40;5.00;;;38.90;37.40;;;;;;5071236;28;20438;-68
2022/07/19 11:24:54;;;;;;;4.77;2.70;;;38.70;37.40;;;;;;5065353;28;20470;-68
2022/07/19 11:27:21;;;;;;;4.90;3.17;;;38.60;37.70;;;;;;5065495;28;20538;-69
2022/07/19 11:29:55;;;;;;;28.10;8.07;;;38.50;36.80;;;;;;5064511;28;21164;-69
2022/07/19 11:32:23;;;;;;;7.10;3.73;;;38.80;36.90;;;;;;5070498;28;20451;-69
2022/07/19 11:34:58;;;;;;;4.20;3.13;;;39.30;36.30;;;;;;5069110;28;20473;-69
2022/07/19 11:37:30;;;;;;;6.50;3.40;;;39.70;36.80;;;;;;5061175;28;20458;-70
2022/07/19 11:39:58;;;;;;;4.43;2.70;;;39.60;36.80;;;;;;5062217;28;20451;-71
2022/07/19 11:42:33;;;;;;;6.33;2.40;;;40.00;37.00;;;;;;5068230;28;20453;-67
2022/07/19 11:45:07;;;;;;;5.70;2.80;;;39.90;34.70;;;;;;5060029;28;20466;-67
2022/07/19 11:47:35;;;;;;;8.30;2.90;;;39.50;38.00;;;;;;5070076;28;20443;-67
2022/07/19 11:50:07;;;;;;;4.77;2.80;;;39.50;36.50;;;;;;5073600;28;20479;-66
2022/07/19 11:52:46;;;;;;;4.27;2.40;;;39.70;37.00;;;;;;5072640;28;20446;-68
2022/07/19 11:55:13;;;;;;;7.47;3.00;;;40.20;35.50;;;;;;5062991;28;20466;-67
2022/07/19 11:57:40;;;;;;;4.37;2.30;;;40.60;35.60;;;;;;5057238;28;20980;-68
2022/07/19 12:00:10;;;;;;;4.70;3.00;;;40.50;35.90;;;;;;5061589;28;20938;-67
2022/07/19 12:02:57;;;;;;;3.70;2.70;;;40.40;34.20;;;;;;5066776;28;20543;-68
2022/07/19 12:05:24;;;;;;;4.07;2.77;;;40.60;34.50;;;;;;5065171;28;20596;-66
2022/07/19 12:07:52;;;;;;;5.27;2.90;;;40.90;36.30;;;;;;5060361;28;20473;-67
2022/07/19 12:10:40;;;;;;;3.83;2.87;;;40.90;34.60;;;;;;5057952;28;20565;-66
2022/07/19 12:13:09;;;;;;;4.40;2.77;;;41.20;34.70;;;;;;5061085;28;20452;-69
2022/07/19 12:15:49;;;;;;;5.20;3.13;;;41.10;34.80;;;;;;5064919;28;20471;-68
2022/07/19 12:18:18;;;;;;;4.83;3.07;;;41.30;34.90;;;;;;5065572;28;20824;-67
2022/07/19 12:20:46;;;;;;;5.60;2.60;;;41.60;34.80;;;;;;5066737;28;20527;-67
2022/07/19 12:23:14;;;;;;;4.50;2.80;;;41.70;33.70;;;;;;5057255;28;20455;-68
2022/07/19 12:25:41;;;;;;;3.30;2.47;;;41.80;34.50;;;;;;5065173;28;20470;-66
2022/07/19 12:28:08;;;;;;;3.87;3.10;;;42.20;33.80;;;;;;5067087;28;20476;-65
2022/07/19 12:30:36;;;;;;;4.33;3.10;;;42.30;33.00;;;;;;5065966;28;20471;-66
2022/07/19 12:33:11;;;;;;;5.70;2.53;;;42.20;33.20;;;;;;5069743;28;20454;-67
2022/07/19 12:35:44;;;;;;;5.33;2.40;;;42.40;33.30;;;;;;5069544;28;20454;-66
2022/07/19 12:38:12;;;;;;;4.07;2.80;;;42.70;33.10;;;;;;5070826;28;20451;-67
2022/07/19 12:40:41;;;;;;;4.20;2.90;;;42.90;33.00;;;;;;5061427;28;20443;-67
2022/07/19 12:43:12;;;;;;;7.73;3.20;;;43.10;32.20;;;;;;5060766;28;20459;-66
2022/07/19 12:45:43;;;;;;;5.57;3.17;;;43.20;32.60;;;;;;5062761;28;20463;-68
2022/07/19 12:48:11;;;;;;;4.00;2.83;;;43.10;31.40;;;;;;5057858;28;20968;-67
2022/07/19 12:50:41;;;;;;;5.10;3.10;;;43.40;32.90;;;;;;5059635;28;20565;-66
2022/07/19 12:53:12;;;;;;;3.13;2.50;;;43.70;31.30;;;;;;5066287;28;20452;-67